createdAt,value
2017-09-30T00:02:27.134Z,93.50
2017-09-30T00:04:55.541Z,93.50
2017-09-30T00:07:24.746Z,93.60
2017-09-30T00:09:53.928Z,93.70
2017-09-30T00:12:23.104Z,93.70
2017-09-30T00:14:51.548Z,93.70
2017-09-30T00:17:20.194Z,93.80
2017-09-30T00:19:49.378Z,93.80
2017-09-30T00:22:17.813Z,93.80
2017-09-30T00:24:46.240Z,93.80
2017-09-30T00:27:15.433Z,93.60
2017-09-30T00:29:43.857Z,93.60
2017-09-30T00:32:12.265Z,94.10
2017-09-30T00:34:40.679Z,93.70
2017-09-30T00:37:09.879Z,93.70
2017-09-30T00:39:39.049Z,93.80
2017-09-30T00:42:07.112Z,93.80
2017-09-30T00:44:35.533Z,93.80
2017-09-30T00:47:03.951Z,93.80
2017-09-30T00:49:32.371Z,93.80
2017-09-30T00:52:01.565Z,93.90
2017-09-30T00:54:29.979Z,93.90
2017-09-30T00:56:57.694Z,93.90
2017-09-30T00:59:25.426Z,93.80
2017-09-30T01:01:53.490Z,94.00
2017-09-30T01:04:21.558Z,94.10
2017-09-30T01:06:49.997Z,94.10
2017-09-30T01:09:19.173Z,94.20
2017-09-30T01:11:47.592Z,94.20
2017-09-30T01:14:16.324Z,94.30
2017-09-30T01:16:44.745Z,94.30
2017-09-30T01:19:13.235Z,94.20
2017-09-30T01:21:41.323Z,94.20
2017-09-30T01:24:09.057Z,94.20
2017-09-30T01:26:38.234Z,94.30
2017-09-30T01:29:06.323Z,94.30
2017-09-30T01:31:34.813Z,94.40
2017-09-30T01:34:02.527Z,94.30
2017-09-30T01:36:30.266Z,94.30
2017-09-30T01:38:58.338Z,94.30
2017-09-30T01:41:26.050Z,94.40
2017-09-30T01:43:55.488Z,94.40
2017-09-30T01:46:23.214Z,94.40
2017-09-30T01:48:51.698Z,94.30
2017-09-30T01:51:20.210Z,94.30
2017-09-30T01:53:48.623Z,94.30
2017-09-30T01:56:17.046Z,94.30
2017-09-30T01:58:45.473Z,94.30
2017-09-30T02:01:15.029Z,94.40
2017-09-30T02:03:43.518Z,94.30
2017-09-30T02:06:11.957Z,94.30
2017-09-30T02:08:40.373Z,94.40
2017-09-30T02:11:08.785Z,94.30
2017-09-30T02:13:37.220Z,94.20
2017-09-30T02:16:06.053Z,94.20
2017-09-30T02:18:34.471Z,94.20
2017-09-30T02:21:03.665Z,94.30
2017-09-30T02:23:32.105Z,94.20
2017-09-30T02:26:00.511Z,94.30
2017-09-30T02:28:29.148Z,94.40
2017-09-30T02:30:57.561Z,94.20
2017-09-30T02:33:25.980Z,94.30
2017-09-30T02:35:55.184Z,94.10
2017-09-30T02:38:23.593Z,94.10
2017-09-30T02:40:52.003Z,94.00
2017-09-30T02:43:20.446Z,94.10
2017-09-30T02:45:48.855Z,94.10
2017-09-30T02:48:17.284Z,94.10
2017-09-30T02:50:45.758Z,94.00
2017-09-30T02:53:14.174Z,94.00
2017-09-30T02:55:42.582Z,94.10
2017-09-30T02:58:11.013Z,94.20
2017-09-30T03:00:39.434Z,94.20
2017-09-30T03:03:07.845Z,94.30
2017-09-30T03:05:36.089Z,94.20
2017-09-30T03:08:04.510Z,94.20
2017-09-30T03:10:32.918Z,94.10
2017-09-30T03:13:01.349Z,94.00
2017-09-30T03:15:30.531Z,94.20
2017-09-30T03:17:58.941Z,94.20
2017-09-30T03:20:27.375Z,94.20
2017-09-30T03:22:55.783Z,94.30
2017-09-30T03:25:24.963Z,94.20
2017-09-30T03:27:53.378Z,94.20
2017-09-30T03:30:21.795Z,94.50
2017-09-30T03:32:50.202Z,94.30
2017-09-30T03:35:19.406Z,94.30
2017-09-30T03:37:48.590Z,94.30
2017-09-30T03:40:17.130Z,94.30
2017-09-30T03:42:45.570Z,94.40
2017-09-30T03:45:14.767Z,94.40
2017-09-30T03:47:43.934Z,94.40
2017-09-30T03:50:12.362Z,94.40
2017-09-30T03:52:41.514Z,94.40
2017-09-30T03:55:10.686Z,94.30
2017-09-30T03:57:39.114Z,94.40
2017-09-30T04:00:08.315Z,94.30
2017-09-30T04:02:36.974Z,94.40
2017-09-30T04:05:06.177Z,94.50
2017-09-30T04:07:35.362Z,94.40
2017-09-30T04:10:03.776Z,94.30
2017-09-30T04:12:32.234Z,94.40
2017-09-30T04:15:01.418Z,94.50
2017-09-30T04:17:29.829Z,94.50
2017-09-30T04:20:04.351Z,94.50
2017-09-30T04:22:32.771Z,94.60
2017-09-30T04:25:01.186Z,94.60
2017-09-30T04:27:30.394Z,94.60
2017-09-30T04:29:59.574Z,94.70
2017-09-30T04:32:28.762Z,94.70
2017-09-30T04:34:57.200Z,94.70
2017-09-30T04:37:25.615Z,94.70
2017-09-30T04:39:54.026Z,94.60
2017-09-30T04:42:22.458Z,94.50
2017-09-30T04:44:50.966Z,94.50
2017-09-30T04:47:20.237Z,94.40
2017-09-30T04:49:48.762Z,94.40
2017-09-30T04:52:17.951Z,94.60
2017-09-30T04:54:46.407Z,94.60
2017-09-30T04:57:15.626Z,94.50
2017-09-30T04:59:44.800Z,94.60
2017-09-30T05:02:13.214Z,94.50
2017-09-30T05:04:41.644Z,94.60
2017-09-30T05:07:10.050Z,94.60
2017-09-30T05:09:39.238Z,94.70
2017-09-30T05:12:07.662Z,94.70
2017-09-30T05:14:36.070Z,94.70
2017-09-30T05:17:04.494Z,94.60
2017-09-30T05:19:33.690Z,94.70
2017-09-30T05:22:02.872Z,94.70
2017-09-30T05:24:32.057Z,94.90
2017-09-30T05:27:00.488Z,94.60
2017-09-30T05:29:28.917Z,94.70
2017-09-30T05:31:57.333Z,94.70
2017-09-30T05:34:25.783Z,94.80
2017-09-30T05:36:54.965Z,94.80
2017-09-30T05:39:23.380Z,94.60
2017-09-30T05:41:51.806Z,94.50
2017-09-30T05:44:20.301Z,94.40
2017-09-30T05:46:50.219Z,94.30
2017-09-30T05:49:18.645Z,94.30
2017-09-30T05:51:47.050Z,94.20
2017-09-30T05:54:15.459Z,94.10
2017-09-30T05:56:43.885Z,94.00
2017-09-30T05:59:12.306Z,94.00
2017-09-30T06:01:40.375Z,93.80
2017-09-30T06:04:08.798Z,93.50
2017-09-30T06:06:37.206Z,93.30
2017-09-30T06:09:05.670Z,93.30
2017-09-30T06:11:34.122Z,93.40
2017-09-30T06:14:03.307Z,93.20
2017-09-30T06:16:32.482Z,93.40
2017-09-30T06:19:00.926Z,93.30
2017-09-30T06:21:29.350Z,93.40
2017-09-30T06:23:57.881Z,93.20
2017-09-30T06:26:26.310Z,93.10
2017-09-30T06:28:54.723Z,93.10
2017-09-30T06:31:23.151Z,93.10
2017-09-30T06:33:51.587Z,93.00
2017-09-30T06:36:20.001Z,93.00
2017-09-30T06:38:48.404Z,92.90
2017-09-30T06:41:17.027Z,92.80
2017-09-30T06:43:45.434Z,92.60
2017-09-30T06:46:13.851Z,92.40
2017-09-30T06:48:43.039Z,92.50
2017-09-30T06:51:11.454Z,92.40
2017-09-30T06:53:39.866Z,92.20
2017-09-30T06:56:08.287Z,92.30
2017-09-30T06:58:37.462Z,92.40
2017-09-30T07:01:05.883Z,92.30
2017-09-30T07:03:34.339Z,92.40
2017-09-30T07:06:03.526Z,91.50
2017-09-30T07:08:31.949Z,91.50
2017-09-30T07:11:00.375Z,91.10
2017-09-30T07:13:30.306Z,91.10
2017-09-30T07:15:59.505Z,91.20
2017-09-30T07:18:28.705Z,90.20
2017-09-30T07:20:57.879Z,90.20
2017-09-30T07:23:26.291Z,90.20
2017-09-30T07:25:55.491Z,89.60
2017-09-30T07:28:23.958Z,89.60
2017-09-30T07:30:53.142Z,89.80
2017-09-30T07:33:21.578Z,89.80
2017-09-30T07:35:49.990Z,89.30
2017-09-30T07:38:18.403Z,90.20
2017-09-30T07:40:46.830Z,89.20
2017-09-30T07:43:15.244Z,89.60
2017-09-30T07:45:44.418Z,88.80
2017-09-30T07:48:12.850Z,88.80
2017-09-30T07:50:41.265Z,87.40
2017-09-30T07:53:09.689Z,87.50
2017-09-30T07:55:39.318Z,87.20
2017-09-30T07:58:08.002Z,87.20
2017-09-30T08:00:36.639Z,87.50
2017-09-30T08:03:06.194Z,87.30
2017-09-30T08:05:34.642Z,87.20
2017-09-30T08:08:03.826Z,86.10
2017-09-30T08:10:33.038Z,84.50
2017-09-30T08:13:02.224Z,86.50
2017-09-30T08:15:32.150Z,85.50
2017-09-30T08:18:01.387Z,84.10
2017-09-30T08:20:29.802Z,84.10
2017-09-30T08:22:58.217Z,85.00
2017-09-30T08:25:26.647Z,85.60
2017-09-30T08:27:55.067Z,84.00
2017-09-30T08:30:23.484Z,83.20
2017-09-30T08:32:51.913Z,83.10
2017-09-30T08:35:21.081Z,81.10
2017-09-30T08:37:50.271Z,83.70
2017-09-30T08:40:18.937Z,83.70
2017-09-30T08:42:47.361Z,83.40
2017-09-30T08:45:16.541Z,83.70
2017-09-30T08:47:46.500Z,82.90
2017-09-30T08:50:15.139Z,82.90
2017-09-30T08:52:44.387Z,82.90
2017-09-30T08:55:12.463Z,82.90
2017-09-30T08:57:40.881Z,82.60
2017-09-30T09:00:09.290Z,82.10
2017-09-30T09:02:38.491Z,80.70
2017-09-30T09:05:07.671Z,79.90
2017-09-30T09:07:36.847Z,79.20
2017-09-30T09:10:05.275Z,79.20
2017-09-30T09:12:33.680Z,78.80
2017-09-30T09:15:02.082Z,76.20
2017-09-30T09:17:30.510Z,75.10
2017-09-30T09:19:58.918Z,75.60
2017-09-30T09:22:27.446Z,76.40
2017-09-30T09:24:56.642Z,75.30
2017-09-30T09:27:25.826Z,74.60
2017-09-30T09:29:54.242Z,74.60
2017-09-30T09:32:22.698Z,75.80
2017-09-30T09:34:51.874Z,75.00
2017-09-30T09:37:20.278Z,75.00
2017-09-30T09:39:49.494Z,74.40
2017-09-30T09:42:17.905Z,74.40
2017-09-30T09:44:46.338Z,73.30
2017-09-30T09:47:14.772Z,73.40
2017-09-30T09:49:43.185Z,73.20
2017-09-30T09:52:12.363Z,74.70
2017-09-30T09:54:40.790Z,74.60
2017-09-30T09:57:09.209Z,73.50
2017-09-30T09:59:37.626Z,70.10
2017-09-30T10:02:06.128Z,69.80
2017-09-30T10:04:34.559Z,66.60
2017-09-30T10:07:02.776Z,63.60
2017-09-30T10:09:31.033Z,64.20
2017-09-30T10:12:00.209Z,63.70
2017-09-30T10:14:28.647Z,63.70
2017-09-30T10:16:57.070Z,62.90
2017-09-30T10:19:26.254Z,66.40
2017-09-30T10:21:56.191Z,66.10
2017-09-30T10:24:24.891Z,66.10
2017-09-30T10:26:53.307Z,67.80
2017-09-30T10:29:21.863Z,68.90
2017-09-30T10:31:50.294Z,69.00
2017-09-30T10:34:18.715Z,67.70
2017-09-30T10:36:47.117Z,67.30
2017-09-30T10:39:15.543Z,66.40
2017-09-30T10:41:44.725Z,64.50
2017-09-30T10:44:13.143Z,64.40
2017-09-30T10:46:41.595Z,64.10
2017-09-30T10:49:10.767Z,65.50
2017-09-30T10:51:39.178Z,65.40
2017-09-30T10:54:08.370Z,64.30
2017-09-30T10:56:37.544Z,65.30
2017-09-30T10:59:06.722Z,64.60
2017-09-30T11:01:35.278Z,64.60
2017-09-30T11:04:03.685Z,60.80
2017-09-30T11:06:32.102Z,62.30
2017-09-30T11:09:01.321Z,57.90
2017-09-30T11:11:29.729Z,57.90
2017-09-30T11:13:58.140Z,58.80
2017-09-30T11:16:27.338Z,57.90
2017-09-30T11:18:57.250Z,57.10
2017-09-30T11:21:27.182Z,54.60
2017-09-30T11:23:56.500Z,55.50
2017-09-30T11:26:24.982Z,54.90
2017-09-30T11:28:53.394Z,54.80
2017-09-30T11:31:21.838Z,53.00
2017-09-30T11:33:50.254Z,51.90
2017-09-30T11:36:18.674Z,50.00
2017-09-30T11:38:47.867Z,49.40
2017-09-30T11:41:17.049Z,49.10
2017-09-30T11:43:45.472Z,49.10
2017-09-30T11:46:13.955Z,47.80
2017-09-30T11:48:43.041Z,47.90
2017-09-30T11:51:11.459Z,46.60
2017-09-30T11:53:39.897Z,47.90
2017-09-30T11:56:08.315Z,47.70
2017-09-30T11:58:36.730Z,46.30
2017-09-30T12:01:05.975Z,48.90
2017-09-30T12:03:34.393Z,49.00
2017-09-30T12:06:02.799Z,47.90
2017-09-30T12:08:31.531Z,49.10
2017-09-30T12:10:59.955Z,49.80
2017-09-30T12:13:29.125Z,53.20
2017-09-30T12:15:57.547Z,53.30
2017-09-30T12:18:25.966Z,53.20
2017-09-30T12:20:54.416Z,55.30
2017-09-30T12:23:22.836Z,55.00
2017-09-30T12:25:51.254Z,54.50
2017-09-30T12:28:19.666Z,53.90
2017-09-30T12:30:48.104Z,53.50
2017-09-30T12:33:17.282Z,54.40
2017-09-30T12:35:45.700Z,54.40
2017-09-30T12:38:14.122Z,53.90
2017-09-30T12:40:42.534Z,55.70
2017-09-30T12:43:11.715Z,57.50
2017-09-30T12:45:40.149Z,57.30
2017-09-30T12:48:08.561Z,57.90
2017-09-30T12:50:36.975Z,57.30
2017-09-30T12:53:05.701Z,58.40
2017-09-30T12:55:34.111Z,59.50
2017-09-30T12:58:02.533Z,59.20
2017-09-30T13:00:30.968Z,59.20
2017-09-30T13:03:01.371Z,60.70
2017-09-30T13:05:30.407Z,61.00
2017-09-30T13:07:59.631Z,59.80
2017-09-30T13:10:28.029Z,59.80
2017-09-30T13:12:56.447Z,60.00
2017-09-30T13:15:25.647Z,60.60
2017-09-30T13:17:54.826Z,62.10
2017-09-30T13:20:23.245Z,62.00
2017-09-30T13:22:51.677Z,62.80
2017-09-30T13:25:20.862Z,62.60
2017-09-30T13:27:49.336Z,62.60
2017-09-30T13:30:17.996Z,61.20
2017-09-30T13:32:46.422Z,62.00
2017-09-30T13:35:14.836Z,62.10
2017-09-30T13:37:44.062Z,63.30
2017-09-30T13:40:12.475Z,63.20
2017-09-30T13:42:40.894Z,62.20
2017-09-30T13:45:09.334Z,62.80
2017-09-30T13:47:38.543Z,62.50
2017-09-30T13:50:07.042Z,62.60
2017-09-30T13:52:36.228Z,62.70
2017-09-30T13:55:05.410Z,61.50
2017-09-30T13:57:35.370Z,62.50
2017-09-30T14:00:03.808Z,62.40
2017-09-30T14:02:31.918Z,62.20
2017-09-30T14:05:00.349Z,61.50
2017-09-30T14:07:28.774Z,60.80
2017-09-30T14:09:57.194Z,61.40
2017-09-30T14:12:25.617Z,60.80
2017-09-30T14:14:54.304Z,60.50
2017-09-30T14:17:22.974Z,62.20
2017-09-30T14:19:52.146Z,59.70
2017-09-30T14:22:20.581Z,59.60
2017-09-30T14:24:49.003Z,62.20
2017-09-30T14:27:17.429Z,61.40
2017-09-30T14:29:45.851Z,61.90
2017-09-30T14:32:14.267Z,61.90
2017-09-30T14:34:43.469Z,63.40
2017-09-30T14:37:12.690Z,61.00
2017-09-30T14:39:41.103Z,60.90
2017-09-30T14:42:09.515Z,62.40
2017-09-30T14:44:38.701Z,64.60
2017-09-30T14:47:07.891Z,65.60
2017-09-30T14:49:36.337Z,65.60
2017-09-30T14:52:04.781Z,66.10
2017-09-30T14:54:33.186Z,66.00
2017-09-30T14:57:01.602Z,66.30
2017-09-30T14:59:30.797Z,67.90
2017-09-30T15:01:59.215Z,67.90
2017-09-30T15:04:27.631Z,68.30
2017-09-30T15:06:56.063Z,68.90
2017-09-30T15:09:24.487Z,67.50
2017-09-30T15:11:52.903Z,68.50
2017-09-30T15:14:22.330Z,68.70
2017-09-30T15:16:50.747Z,68.60
2017-09-30T15:19:19.187Z,70.60
2017-09-30T15:21:47.643Z,67.90
2017-09-30T15:24:17.495Z,68.40
2017-09-30T15:26:45.906Z,68.40
2017-09-30T15:29:14.337Z,67.20
2017-09-30T15:31:42.828Z,68.40
2017-09-30T15:34:11.246Z,68.70
2017-09-30T15:36:39.670Z,68.00
2017-09-30T15:39:08.082Z,68.60
2017-09-30T15:41:36.528Z,69.10
2017-09-30T15:44:04.962Z,68.30
2017-09-30T15:46:33.369Z,69.70
2017-09-30T15:49:02.551Z,71.00
2017-09-30T15:51:31.252Z,70.90
2017-09-30T15:54:00.429Z,71.40
2017-09-30T15:56:29.598Z,73.20
2017-09-30T15:58:58.032Z,73.20
2017-09-30T16:01:27.206Z,73.90
2017-09-30T16:03:55.632Z,73.90
2017-09-30T16:06:23.893Z,73.00
2017-09-30T16:08:52.381Z,71.90
2017-09-30T16:11:20.880Z,72.50
2017-09-30T16:13:49.619Z,73.80
2017-09-30T16:16:18.995Z,72.90
2017-09-30T16:18:47.641Z,72.20
2017-09-30T16:21:16.258Z,72.70
2017-09-30T16:23:44.681Z,74.50
2017-09-30T16:26:13.112Z,74.20
2017-09-30T16:28:41.536Z,73.20
2017-09-30T16:31:09.979Z,74.60
2017-09-30T16:33:38.391Z,74.70
2017-09-30T16:36:06.825Z,74.00
2017-09-30T16:38:35.257Z,75.30
2017-09-30T16:41:03.678Z,76.50
2017-09-30T16:43:32.169Z,76.40
2017-09-30T16:46:00.938Z,76.20
2017-09-30T16:48:29.350Z,76.30
2017-09-30T16:50:58.550Z,76.50
2017-09-30T16:53:27.731Z,76.40
2017-09-30T16:55:56.146Z,76.40
2017-09-30T16:58:24.574Z,77.60
2017-09-30T17:00:52.990Z,77.20
2017-09-30T17:03:22.166Z,77.80
2017-09-30T17:05:50.593Z,77.70
2017-09-30T17:08:19.002Z,77.70
2017-09-30T17:10:47.413Z,78.40
2017-09-30T17:13:16.602Z,78.50
2017-09-30T17:15:45.012Z,78.60
2017-09-30T17:18:13.425Z,79.30
2017-09-30T17:20:41.857Z,78.80
2017-09-30T17:23:11.034Z,81.10
2017-09-30T17:25:39.439Z,81.10
2017-09-30T17:28:08.196Z,81.40
2017-09-30T17:30:36.993Z,82.50
2017-09-30T17:33:06.227Z,82.50
2017-09-30T17:35:34.669Z,82.50
2017-09-30T17:38:03.841Z,82.80
2017-09-30T17:40:32.265Z,82.90
2017-09-30T17:43:00.684Z,83.70
2017-09-30T17:45:28.918Z,83.60
2017-09-30T17:47:57.334Z,84.20
2017-09-30T17:50:25.767Z,85.10
2017-09-30T17:52:54.948Z,85.00
2017-09-30T17:55:24.186Z,85.70
2017-09-30T17:57:52.614Z,85.60
2017-09-30T18:00:21.888Z,85.70
2017-09-30T18:02:50.298Z,85.70
2017-09-30T18:05:19.518Z,87.20
2017-09-30T18:07:47.930Z,86.50
2017-09-30T18:10:16.357Z,86.50
2017-09-30T18:12:45.550Z,86.60
2017-09-30T18:15:13.954Z,86.40
2017-09-30T18:17:42.366Z,86.70
2017-09-30T18:20:10.806Z,87.30
2017-09-30T18:22:39.222Z,87.30
2017-09-30T18:25:07.639Z,87.50
2017-09-30T18:27:36.073Z,87.60
2017-09-30T18:30:04.500Z,88.00
2017-09-30T18:32:33.673Z,88.30
2017-09-30T18:35:02.292Z,88.20
2017-09-30T18:37:31.475Z,88.70
2017-09-30T18:40:00.663Z,88.80
2017-09-30T18:42:28.757Z,88.80
2017-09-30T18:44:57.943Z,89.20
2017-09-30T18:47:27.121Z,89.20
2017-09-30T18:49:55.553Z,89.10
2017-09-30T18:52:23.975Z,89.20
2017-09-30T18:54:52.391Z,89.20
2017-09-30T18:57:21.587Z,89.10
2017-09-30T18:59:50.775Z,89.80
2017-09-30T19:02:19.952Z,89.30
2017-09-30T19:04:49.141Z,89.50
2017-09-30T19:07:17.603Z,89.60
2017-09-30T19:09:46.005Z,89.70
2017-09-30T19:12:14.435Z,89.50
2017-09-30T19:14:42.891Z,89.60
2017-09-30T19:17:11.320Z,89.60
2017-09-30T19:19:39.751Z,90.00
2017-09-30T19:22:08.165Z,90.10
2017-09-30T19:24:36.571Z,89.90
2017-09-30T19:27:04.995Z,90.10
2017-09-30T19:29:34.292Z,89.90
2017-09-30T19:32:02.704Z,90.10
2017-09-30T19:34:31.137Z,90.10
2017-09-30T19:37:01.465Z,90.20
2017-09-30T19:39:29.874Z,90.20
2017-09-30T19:41:58.311Z,90.20
2017-09-30T19:44:27.301Z,90.30
2017-09-30T19:46:56.495Z,90.40
2017-09-30T19:49:25.690Z,90.50
2017-09-30T19:51:54.874Z,90.60
2017-09-30T19:54:23.288Z,90.60
2017-09-30T19:56:51.970Z,90.60
2017-09-30T19:59:20.378Z,90.70
2017-09-30T20:01:48.798Z,90.80
2017-09-30T20:04:19.158Z,90.80
2017-09-30T20:06:47.574Z,90.70
2017-09-30T20:09:16.032Z,90.70
2017-09-30T20:11:44.465Z,90.60
2017-09-30T20:14:13.646Z,90.80
2017-09-30T20:16:42.069Z,90.80
2017-09-30T20:19:10.510Z,90.80
2017-09-30T20:21:38.949Z,91.00
2017-09-30T20:24:07.369Z,91.00
2017-09-30T20:26:35.801Z,90.90
2017-09-30T20:29:04.221Z,90.90
2017-09-30T20:31:32.870Z,91.10
2017-09-30T20:34:01.306Z,91.10
2017-09-30T20:36:31.087Z,91.20
2017-09-30T20:38:59.506Z,91.20
2017-09-30T20:41:27.945Z,91.20
2017-09-30T20:43:56.357Z,91.30
2017-09-30T20:46:24.779Z,91.40
2017-09-30T20:48:53.197Z,91.40
2017-09-30T20:51:21.605Z,91.50
2017-09-30T20:53:50.033Z,92.10
2017-09-30T20:56:18.464Z,91.70
2017-09-30T20:58:47.156Z,91.50
2017-09-30T21:01:15.571Z,91.50
2017-09-30T21:03:43.998Z,91.50
2017-09-30T21:06:12.424Z,91.30
2017-09-30T21:08:40.846Z,91.30
2017-09-30T21:11:10.042Z,91.60
2017-09-30T21:13:39.230Z,91.50
2017-09-30T21:16:08.403Z,91.40
2017-09-30T21:18:36.834Z,91.40
2017-09-30T21:21:05.246Z,91.10
2017-09-30T21:23:33.668Z,90.30
2017-09-30T21:26:02.874Z,90.00
2017-09-30T21:28:31.290Z,90.00
2017-09-30T21:30:59.886Z,89.50
2017-09-30T21:33:28.314Z,90.00
2017-09-30T21:35:57.566Z,90.00
2017-09-30T21:38:25.993Z,90.00
2017-09-30T21:40:54.426Z,90.20
2017-09-30T21:43:22.850Z,90.30
2017-09-30T21:45:51.065Z,90.30
2017-09-30T21:48:19.508Z,90.50
2017-09-30T21:50:47.963Z,90.60
2017-09-30T21:53:16.211Z,90.50
2017-09-30T21:55:44.645Z,90.70
2017-09-30T21:58:12.899Z,90.60
2017-09-30T22:00:41.315Z,90.90
2017-09-30T22:03:09.767Z,91.10
2017-09-30T22:05:38.188Z,91.10
2017-09-30T22:08:06.590Z,91.10
2017-09-30T22:10:35.014Z,91.30
2017-09-30T22:13:03.418Z,91.70
2017-09-30T22:15:31.668Z,92.60
2017-09-30T22:17:59.898Z,93.20
2017-09-30T22:20:28.120Z,93.30
2017-09-30T22:22:56.518Z,93.80
2017-09-30T22:25:24.749Z,94.00
2017-09-30T22:27:53.928Z,94.20
2017-09-30T22:30:22.343Z,94.20
2017-09-30T22:32:50.850Z,94.30
2017-09-30T22:35:19.263Z,94.40
2017-09-30T22:37:47.673Z,94.50
2017-09-30T22:40:15.961Z,95.00
2017-09-30T22:42:44.379Z,94.80
2017-09-30T22:45:12.788Z,95.00
2017-09-30T22:47:41.997Z,95.10
2017-09-30T22:50:10.419Z,95.10
2017-09-30T22:52:38.836Z,94.90
2017-09-30T22:55:08.043Z,95.10
2017-09-30T22:57:36.450Z,95.10
2017-09-30T23:00:04.872Z,95.20
2017-09-30T23:02:33.302Z,95.00
2017-09-30T23:05:01.714Z,95.00
2017-09-30T23:07:30.130Z,94.90
2017-09-30T23:09:59.342Z,95.00
2017-09-30T23:12:27.754Z,95.00
2017-09-30T23:14:56.170Z,95.00
2017-09-30T23:17:24.606Z,95.00
2017-09-30T23:19:53.023Z,95.10
2017-09-30T23:22:21.438Z,95.30
2017-09-30T23:24:49.874Z,95.00
2017-09-30T23:27:18.302Z,95.10
2017-09-30T23:29:46.713Z,95.00
2017-09-30T23:32:15.789Z,94.90
2017-09-30T23:34:44.197Z,94.70
2017-09-30T23:37:12.608Z,94.90
2017-09-30T23:39:41.043Z,94.90
2017-09-30T23:42:09.457Z,94.60
2017-09-30T23:44:38.623Z,94.50
2017-09-30T23:47:07.041Z,94.50
2017-09-30T23:49:36.212Z,94.50
2017-09-30T23:52:04.617Z,94.50
2017-09-30T23:54:33.825Z,94.50
2017-09-30T23:57:02.234Z,94.50
2017-09-30T23:59:30.646Z,94.40
